Time;durP1;ratioP1;P1;durP2;ratioP2;P2;SDS_P1;SDS_P2;PMS_P1;PMS_P2;Temp;Humidity;BMP_temperature;BMP_pressure;BME280_temperature;BME280_humidity;BME280_pressure;Samples;Min_cycle;Max_cycle;Signal;HPM_P1;HPM_P2
2023/06/29 00:01:54;;;;;;;23.30;17.45;;;13.90;99.90;;;;;;5050187;28;20021;-82
2023/06/29 00:04:21;;;;;;;23.92;17.80;;;13.90;99.90;;;;;;5051357;28;20081;-81
2023/06/29 00:06:49;;;;;;;25.45;18.73;;;13.90;99.90;;;;;;5051427;28;20021;-82
2023/06/29 00:09:16;;;;;;;27.08;17.35;;;14.00;99.90;;;;;;5049965;28;20017;-81
2023/06/29 00:11:43;;;;;;;23.83;18.98;;;14.00;99.90;;;;;;5050081;28;20077;-82
2023/06/29 00:14:08;;;;;;;26.50;17.40;;;14.00;99.90;;;;;;5051274;28;20100;-81
2023/06/29 00:16:35;;;;;;;26.52;18.23;;;14.00;99.90;;;;;;5050023;28;20112;-81
2023/06/29 00:19:01;;;;;;;24.30;18.27;;;14.00;99.90;;;;;;5049951;28;20386;-82
2023/06/29 00:21:28;;;;;;;25.23;19.30;;;14.00;99.90;;;;;;5050877;28;20025;-81
2023/06/29 00:23:54;;;;;;;30.73;18.20;;;14.00;99.90;;;;;;5049785;28;20413;-82
2023/06/29 00:26:21;;;;;;;26.00;18.30;;;14.00;99.90;;;;;;5049728;28;20029;-82
2023/06/29 00:28:46;;;;;;;28.23;18.65;;;14.00;99.90;;;;;;5049831;28;20527;-81
2023/06/29 00:31:12;;;;;;;28.25;20.02;;;14.00;99.90;;;;;;5049608;28;20021;-81
2023/06/29 00:33:37;;;;;;;26.95;19.67;;;14.00;99.90;;;;;;5049739;28;20075;-81
2023/06/29 00:36:03;;;;;;;26.25;18.45;;;14.10;99.90;;;;;;5049620;28;20580;-83
2023/06/29 00:38:29;;;;;;;30.05;18.77;;;14.00;99.90;;;;;;5049574;28;20021;-82
2023/06/29 00:40:55;;;;;;;30.77;18.25;;;14.10;99.90;;;;;;5049438;28;20082;-82
2023/06/29 00:43:20;;;;;;;23.77;17.95;;;14.00;99.90;;;;;;5050706;28;20073;-82
2023/06/29 00:45:46;;;;;;;24.60;16.92;;;14.00;99.90;;;;;;5049390;28;20454;-82
2023/06/29 00:48:12;;;;;;;26.35;18.42;;;14.00;99.90;;;;;;5049523;28;20029;-82
2023/06/29 00:50:39;;;;;;;28.48;18.58;;;14.00;99.90;;;;;;5049397;28;20146;-82
2023/06/29 00:53:06;;;;;;;24.05;17.80;;;14.00;99.90;;;;;;5049425;28;20449;-82
2023/06/29 00:55:32;;;;;;;25.20;16.83;;;14.00;99.90;;;;;;5049334;28;20102;-81
2023/06/29 00:57:57;;;;;;;24.88;17.60;;;14.00;99.90;;;;;;5049333;28;20021;-82
2023/06/29 01:00:23;;;;;;;20.88;15.43;;;14.10;99.90;;;;;;5049432;28;20054;-82
2023/06/29 01:02:49;;;;;;;26.65;18.38;;;14.00;99.90;;;;;;5048921;28;20036;-82
2023/06/29 01:05:15;;;;;;;29.20;18.05;;;14.00;99.90;;;;;;5049203;28;20037;-83
2023/06/29 01:08:09;;;;;;;24.33;17.73;;;14.00;99.90;;;;;;5050656;28;20036;-82
2023/06/29 01:10:36;;;;;;;28.75;17.25;;;13.90;99.90;;;;;;5050774;28;20045;-81
2023/06/29 01:13:04;;;;;;;24.27;17.25;;;13.90;99.90;;;;;;5049148;28;20036;-83
2023/06/29 01:15:30;;;;;;;24.77;17.38;;;13.90;99.90;;;;;;5049028;28;20054;-82
2023/06/29 01:17:59;;;;;;;31.13;18.40;;;13.90;99.90;;;;;;5049200;28;20029;-83
2023/06/29 01:20:26;;;;;;;26.35;17.08;;;13.90;99.90;;;;;;5048950;28;20107;-81
2023/06/29 01:22:58;;;;;;;29.08;19.95;;;13.90;99.90;;;;;;5049073;28;20405;-82
2023/06/29 01:25:24;;;;;;;;;;;13.90;99.90;;;;;;5049432;28;20037;-82
2023/06/29 01:27:50;;;;;;;26.48;17.95;;;13.90;99.90;;;;;;5050193;28;19950;-82
2023/06/29 01:30:17;;;;;;;27.13;18.83;;;13.90;99.90;;;;;;5048932;28;20021;-82
2023/06/29 01:32:43;;;;;;;26.92;19.55;;;13.90;99.90;;;;;;5049046;28;20049;-82
2023/06/29 01:35:09;;;;;;;25.58;19.02;;;13.90;99.90;;;;;;5051704;28;20067;-82
2023/06/29 01:37:59;;;;;;;24.80;18.70;;;13.90;99.90;;;;;;5053710;28;20060;-82
2023/06/29 01:40:32;;;;;;;25.23;20.02;;;13.90;99.90;;;;;;5052591;28;20053;-82
2023/06/29 01:42:58;;;;;;;32.25;19.25;;;14.00;99.90;;;;;;5052308;28;20090;-82
2023/06/29 01:45:25;;;;;;;28.10;19.83;;;13.90;99.90;;;;;;5053537;28;20078;-82
2023/06/29 01:47:52;;;;;;;26.42;18.83;;;13.90;99.90;;;;;;5052159;28;20025;-82
2023/06/29 01:50:18;;;;;;;33.58;20.00;;;13.90;99.90;;;;;;5053548;28;20382;-83
2023/06/29 01:52:44;;;;;;;22.30;17.23;;;14.00;99.90;;;;;;5052240;28;20025;-82
2023/06/29 01:55:11;;;;;;;26.05;18.95;;;14.00;99.90;;;;;;5052173;28;20058;-82
2023/06/29 01:57:37;;;;;;;23.15;18.38;;;14.00;99.90;;;;;;5052157;28;20022;-82
2023/06/29 02:00:03;;;;;;;23.58;18.13;;;14.00;99.90;;;;;;5052187;28;20055;-82
2023/06/29 02:02:30;;;;;;;30.63;19.70;;;14.00;99.90;;;;;;5053315;28;20030;-82
2023/06/29 02:04:55;;;;;;;25.88;18.52;;;14.00;99.90;;;;;;5053209;28;20037;-82
2023/06/29 02:07:21;;;;;;;26.75;20.08;;;14.00;99.90;;;;;;5051987;28;20103;-82
2023/06/29 02:09:47;;;;;;;26.48;18.83;;;14.00;99.90;;;;;;5053035;28;20017;-83
2023/06/29 02:12:13;;;;;;;29.55;19.80;;;14.00;99.90;;;;;;5051902;28;20021;-82
2023/06/29 02:14:38;;;;;;;26.67;17.65;;;14.00;99.90;;;;;;5053213;28;20033;-83
2023/06/29 02:17:04;;;;;;;29.63;19.20;;;14.00;99.90;;;;;;5053038;28;20486;-82
2023/06/29 02:19:30;;;;;;;28.58;18.90;;;14.00;99.90;;;;;;5051778;28;20027;-82
2023/06/29 02:21:55;;;;;;;33.15;19.95;;;14.00;99.90;;;;;;5052968;28;20027;-83
2023/06/29 02:24:21;;;;;;;25.05;19.10;;;14.00;99.90;;;;;;5052792;28;20066;-83
2023/06/29 02:26:46;;;;;;;28.15;19.10;;;14.00;99.90;;;;;;5052844;28;20393;-82
2023/06/29 02:29:12;;;;;;;27.75;18.55;;;13.90;99.90;;;;;;5051658;28;20047;-83
2023/06/29 02:31:38;;;;;;;28.70;20.02;;;13.90;99.90;;;;;;5051601;28;20430;-82
2023/06/29 02:34:04;;;;;;;29.33;21.35;;;13.90;99.90;;;;;;5051466;28;20025;-83
2023/06/29 02:36:30;;;;;;;28.17;18.67;;;13.90;99.90;;;;;;5051549;28;20025;-83
2023/06/29 02:38:56;;;;;;;27.42;19.45;;;13.90;99.90;;;;;;5051504;28;20056;-82
2023/06/29 02:41:22;;;;;;;30.90;20.73;;;13.90;99.90;;;;;;5052596;28;20076;-83
2023/06/29 02:43:47;;;;;;;38.13;20.17;;;13.90;99.90;;;;;;5052564;28;20064;-82
2023/06/29 02:46:13;;;;;;;26.50;20.42;;;13.90;99.90;;;;;;5049974;28;20025;-82
2023/06/29 02:48:38;;;;;;;33.65;18.75;;;13.90;99.90;;;;;;5051390;28;20473;-82
2023/06/29 02:51:05;;;;;;;26.73;18.63;;;13.90;99.90;;;;;;5052452;28;20379;-83
2023/06/29 02:53:30;;;;;;;29.10;19.60;;;13.90;99.90;;;;;;5052638;28;20025;-83
2023/06/29 02:55:56;;;;;;;32.58;20.98;;;13.90;99.90;;;;;;5052429;28;20470;-82
2023/06/29 02:58:22;;;;;;;23.38;18.67;;;13.90;99.90;;;;;;5051204;28;20053;-82
2023/06/29 03:00:47;;;;;;;32.42;19.55;;;13.90;99.90;;;;;;5051045;28;20059;-82
2023/06/29 03:03:13;;;;;;;23.98;18.25;;;13.90;99.90;;;;;;5052398;28;20387;-83
2023/06/29 03:05:39;;;;;;;27.30;20.85;;;14.00;99.90;;;;;;5050978;28;20021;-82
2023/06/29 03:08:04;;;;;;;26.70;18.67;;;14.00;99.90;;;;;;5051072;28;20033;-82
2023/06/29 03:10:30;;;;;;;27.65;18.95;;;14.00;99.90;;;;;;5052144;28;20029;-82
2023/06/29 03:12:56;;;;;;;30.15;19.17;;;14.00;99.90;;;;;;5050939;28;20022;-81
2023/06/29 03:15:21;;;;;;;21.60;16.95;;;14.00;99.90;;;;;;5050934;28;20534;-82
2023/06/29 03:17:47;;;;;;;30.65;19.08;;;14.00;99.90;;;;;;5050883;28;20474;-82
2023/06/29 03:20:15;;;;;;;25.95;18.90;;;14.00;99.90;;;;;;5052208;28;20394;-82
2023/06/29 03:22:41;;;;;;;30.60;19.75;;;14.00;99.90;;;;;;5052374;28;20478;-82
2023/06/29 03:25:10;;;;;;;23.10;17.17;;;14.00;99.90;;;;;;5050690;28;20033;-82
2023/06/29 03:27:37;;;;;;;28.65;18.08;;;14.10;99.90;;;;;;5050718;28;20021;-82
2023/06/29 03:30:03;;;;;;;28.60;19.92;;;14.10;99.90;;;;;;5052118;28;20500;-82
2023/06/29 03:32:29;;;;;;;29.23;19.75;;;14.10;99.90;;;;;;5051800;28;20025;-82
2023/06/29 03:34:55;;;;;;;25.17;18.77;;;14.10;99.90;;;;;;5050638;28;20073;-82
2023/06/29 03:37:20;;;;;;;24.35;18.27;;;14.10;99.90;;;;;;5050613;28;20108;-81
2023/06/29 03:39:46;;;;;;;24.88;18.55;;;14.10;99.90;;;;;;5051861;28;20052;-81
2023/06/29 03:42:11;;;;;;;30.77;19.33;;;14.10;99.90;;;;;;5050391;28;20052;-81
2023/06/29 03:44:39;;;;;;;28.23;19.00;;;14.20;99.90;;;;;;5050393;28;20569;-81
2023/06/29 03:47:06;;;;;;;26.58;17.95;;;14.20;99.90;;;;;;5050468;28;20017;-82
2023/06/29 03:49:32;;;;;;;25.02;18.25;;;14.30;99.90;;;;;;5050493;28;20768;-81
2023/06/29 03:51:58;;;;;;;25.83;18.42;;;14.20;99.90;;;;;;5050410;28;20474;-81
2023/06/29 03:54:23;;;;;;;26.88;18.75;;;14.20;99.90;;;;;;5051847;28;20029;-82
2023/06/29 03:56:49;;;;;;;26.52;18.77;;;14.30;99.90;;;;;;5049811;28;20029;-81
2023/06/29 03:59:14;;;;;;;28.25;17.10;;;14.30;99.90;;;;;;5050341;28;20061;-81
2023/06/29 04:01:40;;;;;;;26.58;18.15;;;14.30;99.90;;;;;;5051392;28;20018;-82
2023/06/29 04:04:05;;;;;;;25.17;18.27;;;14.30;99.90;;;;;;5050080;28;20033;-82
2023/06/29 04:06:31;;;;;;;27.90;18.42;;;14.40;99.90;;;;;;5050033;28;20187;-82
2023/06/29 04:08:56;;;;;;;29.15;18.88;;;14.40;99.90;;;;;;5051338;28;20029;-81
2023/06/29 04:11:22;;;;;;;26.42;17.42;;;14.40;99.90;;;;;;5051338;28;20029;-82
2023/06/29 04:13:48;;;;;;;25.13;17.27;;;14.40;99.90;;;;;;5050014;28;20029;-82
2023/06/29 04:16:13;;;;;;;24.92;18.08;;;14.40;99.90;;;;;;5049906;28;20021;-82
2023/06/29 04:18:39;;;;;;;29.40;18.65;;;14.50;99.90;;;;;;5049958;28;20029;-82
2023/06/29 04:21:04;;;;;;;23.52;16.85;;;14.50;99.90;;;;;;5051065;28;20033;-82
2023/06/29 04:23:30;;;;;;;29.00;18.63;;;14.50;99.90;;;;;;5049782;28;20042;-82
2023/06/29 04:25:55;;;;;;;23.63;18.48;;;14.60;99.90;;;;;;5049856;28;20020;-82
2023/06/29 04:28:21;;;;;;;27.33;18.50;;;14.60;99.90;;;;;;5051040;28;20025;-82
2023/06/29 04:30:46;;;;;;;22.02;16.92;;;14.70;99.90;;;;;;5049698;28;20048;-81
2023/06/29 04:33:14;;;;;;;28.15;17.48;;;14.70;99.90;;;;;;5049693;28;20020;-81
2023/06/29 04:35:42;;;;;;;24.65;18.80;;;14.70;99.90;;;;;;5049832;28;20013;-81
2023/06/29 04:38:10;;;;;;;25.88;18.73;;;14.80;99.90;;;;;;5050975;28;20077;-81
2023/06/29 04:40:37;;;;;;;26.05;18.75;;;14.80;99.90;;;;;;5050873;28;20447;-82
2023/06/29 04:43:03;;;;;;;23.17;16.02;;;14.80;99.90;;;;;;5050816;28;20498;-82
2023/06/29 04:45:32;;;;;;;25.25;17.08;;;14.80;99.90;;;;;;5049434;28;20021;-82
2023/06/29 04:47:59;;;;;;;25.05;16.70;;;14.90;99.90;;;;;;5049885;28;20065;-82
2023/06/29 04:50:26;;;;;;;25.92;16.08;;;14.90;99.90;;;;;;5051035;28;20064;-82
2023/06/29 04:52:55;;;;;;;20.95;16.85;;;15.00;99.90;;;;;;5050734;28;20025;-82
2023/06/29 04:55:22;;;;;;;21.65;16.73;;;15.00;99.90;;;;;;5049345;28;20109;-82
2023/06/29 04:57:48;;;;;;;21.98;18.27;;;15.00;99.90;;;;;;5050807;28;20025;-81
2023/06/29 05:00:14;;;;;;;25.17;16.23;;;15.00;99.90;;;;;;5050589;28;20028;-82
2023/06/29 05:02:41;;;;;;;20.00;15.43;;;15.10;99.90;;;;;;5049535;28;20044;-81
2023/06/29 05:05:07;;;;;;;21.48;15.55;;;15.00;99.90;;;;;;5050554;28;20398;-81
2023/06/29 05:07:34;;;;;;;24.45;17.52;;;15.10;99.90;;;;;;5050320;28;20069;-81
2023/06/29 05:10:01;;;;;;;21.35;14.98;;;15.10;99.90;;;;;;5048452;28;20029;-81
2023/06/29 05:12:26;;;;;;;21.40;14.50;;;15.20;99.90;;;;;;5048892;28;20021;-82
2023/06/29 05:14:52;;;;;;;26.02;15.48;;;15.20;99.90;;;;;;5049409;28;20027;-82
2023/06/29 05:17:18;;;;;;;26.15;15.68;;;15.10;99.90;;;;;;5050478;28;20024;-82
2023/06/29 05:19:44;;;;;;;26.27;15.85;;;15.10;99.90;;;;;;5050335;28;20029;-82
2023/06/29 05:22:10;;;;;;;24.50;18.10;;;15.10;99.90;;;;;;5049150;28;20029;-81
2023/06/29 05:24:37;;;;;;;19.52;15.52;;;15.20;99.90;;;;;;5049073;28;20044;-81
2023/06/29 05:27:03;;;;;;;22.63;17.35;;;15.20;99.90;;;;;;5049165;28;20065;-82
2023/06/29 05:29:29;;;;;;;21.77;15.85;;;15.30;99.90;;;;;;5048938;28;20440;-81
2023/06/29 05:31:55;;;;;;;21.38;16.35;;;15.30;99.90;;;;;;5050237;28;20052;-82
2023/06/29 05:34:20;;;;;;;23.40;17.00;;;15.40;99.90;;;;;;5048934;28;20025;-82
2023/06/29 05:36:46;;;;;;;25.73;16.83;;;15.40;99.90;;;;;;5050075;28;20063;-82
2023/06/29 05:39:11;;;;;;;25.45;16.60;;;15.50;99.90;;;;;;5050296;28;20025;-82
2023/06/29 05:41:38;;;;;;;23.92;17.15;;;15.50;99.90;;;;;;5050194;28;20074;-82
2023/06/29 05:44:04;;;;;;;22.88;17.58;;;15.60;99.90;;;;;;5050201;28;20036;-82
2023/06/29 05:46:30;;;;;;;23.10;16.60;;;15.70;99.90;;;;;;5048767;28;20021;-82
2023/06/29 05:48:55;;;;;;;21.65;15.65;;;15.80;99.90;;;;;;5048804;28;20017;-82
2023/06/29 05:51:21;;;;;;;22.80;16.08;;;15.80;99.90;;;;;;5048776;28;20025;-82
2023/06/29 05:53:46;;;;;;;23.90;15.90;;;15.80;99.90;;;;;;5050003;28;20060;-82
2023/06/29 05:56:12;;;;;;;22.30;16.05;;;15.80;99.90;;;;;;5049891;28;20028;-82
2023/06/29 05:58:37;;;;;;;21.08;15.32;;;15.80;99.90;;;;;;5049947;28;20077;-82
2023/06/29 06:01:04;;;;;;;19.52;15.38;;;15.90;99.90;;;;;;5049292;28;20017;-82
2023/06/29 06:03:29;;;;;;;18.90;16.10;;;16.00;99.90;;;;;;5049737;28;20530;-82
2023/06/29 06:05:55;;;;;;;18.27;14.55;;;16.00;99.90;;;;;;5048510;28;20013;-82
2023/06/29 06:08:20;;;;;;;24.83;15.60;;;16.00;99.90;;;;;;5049819;28;20470;-82
2023/06/29 06:10:46;;;;;;;16.63;12.35;;;16.00;99.90;;;;;;5049721;28;20025;-82
2023/06/29 06:13:12;;;;;;;19.42;14.32;;;16.10;99.90;;;;;;5049752;28;20017;-81
2023/06/29 06:15:39;;;;;;;15.13;13.30;;;16.30;99.90;;;;;;5048554;28;20017;-82
2023/06/29 06:18:05;;;;;;;16.35;12.73;;;16.40;99.90;;;;;;5048443;28;20025;-82
2023/06/29 06:20:30;;;;;;;18.25;13.45;;;16.40;99.90;;;;;;5051302;28;20028;-82
2023/06/29 06:22:56;;;;;;;17.65;14.45;;;16.50;99.90;;;;;;5053011;28;20157;-82
2023/06/29 06:25:22;;;;;;;18.15;12.80;;;16.50;99.90;;;;;;5052951;28;20025;-82
2023/06/29 06:27:47;;;;;;;16.83;13.05;;;16.60;99.90;;;;;;5053221;28;20035;-82
2023/06/29 06:30:13;;;;;;;18.00;12.27;;;16.80;99.90;;;;;;5051720;28;20017;-82
2023/06/29 06:32:39;;;;;;;13.30;10.35;;;17.00;99.90;;;;;;5051641;28;20382;-82
2023/06/29 06:35:08;;;;;;;13.15;11.75;;;16.90;99.90;;;;;;5052906;28;20046;-82
2023/06/29 06:37:35;;;;;;;16.88;10.75;;;17.00;99.90;;;;;;5051659;28;20435;-82
2023/06/29 06:40:07;;;;;;;14.90;10.40;;;17.20;99.90;;;;;;5051310;28;20029;-83
2023/06/29 06:42:34;;;;;;;13.88;10.38;;;17.30;99.90;;;;;;5051600;28;20386;-82
2023/06/29 06:45:03;;;;;;;19.50;11.30;;;17.20;99.90;;;;;;5051343;28;20037;-83
2023/06/29 06:47:30;;;;;;;11.80;10.10;;;17.40;99.90;;;;;;5052669;28;20103;-82
2023/06/29 06:49:55;;;;;;;11.98;10.23;;;17.50;99.90;;;;;;5051906;28;20026;-83
2023/06/29 06:52:21;;;;;;;14.13;10.75;;;17.40;99.90;;;;;;5051475;28;20382;-83
2023/06/29 06:54:46;;;;;;;15.27;11.20;;;17.50;99.90;;;;;;5051282;28;20407;-82
2023/06/29 06:57:12;;;;;;;15.38;11.00;;;17.70;99.90;;;;;;5052513;28;20470;-82
2023/06/29 06:59:38;;;;;;;15.07;8.63;;;17.70;99.90;;;;;;5052480;28;20070;-82
2023/06/29 07:02:05;;;;;;;15.23;8.98;;;17.80;99.90;;;;;;5051136;28;20018;-82
2023/06/29 07:04:30;;;;;;;12.68;8.82;;;18.10;99.90;;;;;;5051223;28;20029;-82
2023/06/29 07:06:56;;;;;;;11.50;9.50;;;18.00;99.90;;;;;;5052459;28;20025;-82
2023/06/29 07:09:22;;;;;;;11.50;9.00;;;18.00;99.90;;;;;;5050992;28;20412;-82
2023/06/29 07:11:47;;;;;;;12.50;9.25;;;18.10;99.90;;;;;;5051073;28;20017;-82
2023/06/29 07:14:13;;;;;;;11.48;9.65;;;18.00;99.90;;;;;;5052243;28;20021;-82
2023/06/29 07:16:38;;;;;;;12.52;9.68;;;17.90;99.90;;;;;;5050783;28;20025;-82
2023/06/29 07:19:06;;;;;;;12.07;9.02;;;18.10;99.90;;;;;;5052161;28;20044;-82
2023/06/29 07:21:32;;;;;;;11.57;9.30;;;18.10;99.90;;;;;;5052251;28;20073;-82
2023/06/29 07:23:58;;;;;;;10.27;9.25;;;18.10;99.90;;;;;;5050784;28;20033;-82
2023/06/29 07:26:24;;;;;;;10.25;8.85;;;18.30;99.90;;;;;;5050870;28;20033;-82
2023/06/29 07:28:50;;;;;;;13.57;9.55;;;18.40;99.90;;;;;;5050786;28;20489;-82
2023/06/29 07:31:16;;;;;;;13.93;9.38;;;18.30;99.90;;;;;;5051138;28;20018;-82
2023/06/29 07:33:41;;;;;;;14.40;10.05;;;18.20;99.90;;;;;;5050775;28;20024;-82
2023/06/29 07:36:07;;;;;;;15.43;9.73;;;18.10;99.90;;;;;;5050873;28;20470;-82
2023/06/29 07:38:33;;;;;;;12.00;9.07;;;18.30;99.90;;;;;;5050642;28;20074;-82
2023/06/29 07:41:00;;;;;;;11.05;8.40;;;18.50;99.90;;;;;;5051712;28;20055;-82
2023/06/29 07:43:25;;;;;;;11.35;9.32;;;18.30;99.90;;;;;;5050595;28;20485;-82
2023/06/29 07:45:51;;;;;;;14.63;9.40;;;18.30;99.90;;;;;;5051613;28;20037;-82
2023/06/29 07:48:17;;;;;;;10.88;8.60;;;18.40;99.90;;;;;;5050432;28;20473;-82
2023/06/29 07:50:42;;;;;;;10.50;8.55;;;18.80;99.90;;;;;;5051553;28;20021;-82
2023/06/29 07:53:08;;;;;;;9.65;8.65;;;18.90;99.90;;;;;;5051948;28;20028;-82
2023/06/29 07:55:34;;;;;;;10.30;8.50;;;18.80;99.90;;;;;;5050302;28;20035;-80
2023/06/29 07:58:00;;;;;;;11.40;8.95;;;18.80;99.90;;;;;;5051731;28;20028;-79
2023/06/29 08:00:26;;;;;;;11.75;8.52;;;18.70;99.90;;;;;;5051594;28;20075;-80
2023/06/29 08:02:51;;;;;;;11.00;9.10;;;18.80;99.90;;;;;;5050184;28;20021;-79
2023/06/29 08:05:17;;;;;;;10.85;8.75;;;18.90;99.90;;;;;;5050523;28;20120;-79
2023/06/29 08:07:43;;;;;;;9.23;8.05;;;18.90;99.90;;;;;;5050266;28;20024;-79
2023/06/29 08:10:09;;;;;;;13.20;8.80;;;19.00;99.90;;;;;;5050119;28;20070;-79
2023/06/29 08:12:35;;;;;;;11.73;8.25;;;19.30;99.90;;;;;;5051390;28;20478;-79
2023/06/29 08:15:01;;;;;;;13.02;8.57;;;19.30;99.90;;;;;;5049994;28;20024;-80
2023/06/29 08:17:26;;;;;;;8.60;7.70;;;19.20;99.90;;;;;;5051543;28;20064;-80
2023/06/29 08:19:52;;;;;;;10.82;9.20;;;19.30;99.90;;;;;;5050067;28;20494;-81
2023/06/29 08:22:18;;;;;;;10.73;9.30;;;19.20;99.90;;;;;;5051155;28;20423;-81
2023/06/29 08:24:43;;;;;;;14.82;9.10;;;19.10;99.90;;;;;;5051037;28;20044;-81
2023/06/29 08:27:09;;;;;;;11.88;9.55;;;19.10;99.90;;;;;;5051239;28;20033;-81
2023/06/29 08:29:38;;;;;;;10.95;8.02;;;19.10;99.90;;;;;;5051230;28;20018;-81
2023/06/29 08:32:04;;;;;;;10.70;9.05;;;19.40;99.90;;;;;;5051079;28;20482;-81
2023/06/29 08:34:29;;;;;;;12.02;8.77;;;19.40;99.90;;;;;;5049756;28;20106;-81
2023/06/29 08:36:55;;;;;;;9.85;8.57;;;19.70;99.90;;;;;;5049637;28;20162;-81
2023/06/29 08:39:21;;;;;;;12.00;8.10;;;20.00;99.90;;;;;;5051206;28;20036;-80
2023/06/29 08:41:46;;;;;;;9.35;8.30;;;20.10;99.20;;;;;;5049919;28;20061;-81
2023/06/29 08:44:13;;;;;;;11.20;8.18;;;20.00;99.90;;;;;;5049465;28;20037;-81
2023/06/29 08:46:41;;;;;;;10.15;9.15;;;20.00;99.90;;;;;;5050774;28;20025;-81
2023/06/29 08:49:08;;;;;;;9.20;8.25;;;20.00;99.90;;;;;;5049574;28;20021;-81
2023/06/29 08:51:37;;;;;;;9.45;7.35;;;20.20;99.90;;;;;;5049484;28;20058;-81
2023/06/29 08:54:03;;;;;;;8.35;6.90;;;20.40;97.60;;;;;;5049670;28;20048;-81
2023/06/29 08:56:30;;;;;;;8.10;7.28;;;20.80;91.80;;;;;;5049624;28;20078;-81
2023/06/29 08:58:56;;;;;;;10.00;7.75;;;20.90;94.30;;;;;;5049322;28;20467;-82
2023/06/29 09:01:22;;;;;;;9.57;7.68;;;20.30;88.90;;;;;;5049250;28;20032;-81
2023/06/29 09:03:49;;;;;;;8.73;7.68;;;20.00;93.70;;;;;;5049240;28;20033;-81
2023/06/29 09:06:15;;;;;;;8.98;8.02;;;19.90;96.50;;;;;;5049464;28;20490;-81
2023/06/29 09:08:41;;;;;;;11.18;8.18;;;19.80;99.90;;;;;;5049336;28;20029;-81
2023/06/29 09:11:07;;;;;;;9.80;8.85;;;20.10;99.90;;;;;;5050504;28;20033;-81
2023/06/29 09:13:33;;;;;;;8.85;7.97;;;19.90;99.90;;;;;;5050537;28;20389;-81
2023/06/29 09:16:00;;;;;;;9.63;7.57;;;19.80;96.80;;;;;;5050349;28;20474;-81
2023/06/29 09:18:27;;;;;;;8.73;7.82;;;20.10;98.80;;;;;;5051000;28;20017;-81
2023/06/29 09:20:56;;;;;;;10.85;8.05;;;19.90;96.90;;;;;;5050304;28;20056;-81
2023/06/29 09:23:25;;;;;;;9.55;8.52;;;19.70;99.90;;;;;;5049083;28;20036;-81
2023/06/29 09:25:54;;;;;;;8.68;7.75;;;19.60;99.90;;;;;;5050350;28;20070;-80
2023/06/29 09:28:19;;;;;;;11.10;8.15;;;19.90;99.90;;;;;;5049716;28;20032;-81
2023/06/29 09:30:45;;;;;;;8.00;7.20;;;20.10;99.90;;;;;;5048914;28;20017;-81
2023/06/29 09:33:12;;;;;;;13.40;7.82;;;19.80;99.90;;;;;;5050322;28;20021;-81
2023/06/29 09:35:43;;;;;;;10.45;8.20;;;19.80;99.90;;;;;;5048898;28;20035;-82
2023/06/29 09:38:09;;;;;;;11.02;8.98;;;19.80;99.90;;;;;;5048972;28;20028;-81
2023/06/29 09:40:52;;;;;;;10.93;8.48;;;20.20;99.90;;;;;;5049854;28;20056;-82
2023/06/29 09:43:21;;;;;;;9.27;7.32;;;20.50;98.60;;;;;;5050094;28;20108;-81
2023/06/29 09:45:46;;;;;;;10.38;8.65;;;20.60;97.90;;;;;;5048957;28;20025;-82
2023/06/29 09:48:15;;;;;;;8.35;7.55;;;20.60;97.00;;;;;;5050046;28;20017;-81
2023/06/29 09:50:48;;;;;;;9.23;7.85;;;20.80;92.50;;;;;;5048765;28;20035;-82
2023/06/29 09:53:14;;;;;;;12.00;8.98;;;20.70;94.00;;;;;;5049077;28;20049;-82
2023/06/29 09:55:42;;;;;;;11.70;8.70;;;20.50;93.80;;;;;;5052080;28;20496;-82
2023/06/29 09:58:09;;;;;;;9.70;8.68;;;20.50;97.60;;;;;;5052135;28;20128;-81
2023/06/29 10:00:35;;;;;;;12.85;9.68;;;20.70;99.90;;;;;;5053420;28;20486;-82
2023/06/29 10:03:01;;;;;;;17.73;10.20;;;20.70;99.90;;;;;;5053280;28;20073;-82
2023/06/29 10:05:30;;;;;;;12.70;9.80;;;20.60;98.20;;;;;;5053138;28;20435;-82
2023/06/29 10:07:57;;;;;;;14.18;9.45;;;20.70;96.80;;;;;;5049793;28;20610;-82
2023/06/29 10:10:25;;;;;;;10.05;8.48;;;20.90;99.50;;;;;;5053070;28;20025;-82
2023/06/29 10:12:54;;;;;;;12.77;9.95;;;20.90;97.20;;;;;;5051827;28;20389;-82
2023/06/29 10:15:24;;;;;;;10.45;8.25;;;20.80;93.50;;;;;;5052910;28;20077;-82
2023/06/29 10:18:04;;;;;;;9.10;8.20;;;20.70;92.10;;;;;;5053232;28;20075;-82
2023/06/29 10:20:32;;;;;;;9.20;8.23;;;20.70;95.50;;;;;;5051718;28;20501;-82
2023/06/29 10:23:04;;;;;;;8.45;7.60;;;20.80;98.10;;;;;;5053062;28;20021;-82
2023/06/29 10:25:34;;;;;;;8.48;7.32;;;20.90;94.60;;;;;;5052842;28;20037;-82
2023/06/29 10:28:01;;;;;;;9.30;8.32;;;21.30;95.60;;;;;;5053558;28;20366;-82
2023/06/29 10:30:26;;;;;;;10.05;7.30;;;21.40;89.10;;;;;;5051661;28;20109;-82
2023/06/29 10:32:53;;;;;;;8.65;7.38;;;21.50;83.30;;;;;;5051573;28;20047;-82
2023/06/29 10:35:22;;;;;;;9.15;8.18;;;21.40;81.00;;;;;;5053135;28;20439;-83
2023/06/29 10:37:49;;;;;;;11.77;7.90;;;20.90;83.50;;;;;;5052784;28;20025;-82
2023/06/29 10:40:20;;;;;;;8.13;7.28;;;21.10;87.50;;;;;;5051253;28;20493;-82
2023/06/29 10:42:45;;;;;;;8.73;7.00;;;21.20;86.80;;;;;;5051537;28;20025;-82
2023/06/29 10:45:20;;;;;;;8.40;6.70;;;21.10;86.30;;;;;;5051426;28;20051;-82
2023/06/29 10:47:58;;;;;;;9.68;7.03;;;21.40;90.90;;;;;;5051445;28;20166;-82
2023/06/29 10:50:39;;;;;;;9.27;7.25;;;21.80;84.30;;;;;;5052658;28;20032;-81
2023/06/29 10:53:08;;;;;;;7.45;6.53;;;22.20;84.40;;;;;;5052593;28;20086;-82
2023/06/29 10:55:51;;;;;;;8.80;7.90;;;22.60;79.30;;;;;;5052440;28;20028;-83
2023/06/29 10:58:30;;;;;;;9.13;6.70;;;22.50;76.70;;;;;;5051241;28;20029;-82
2023/06/29 11:00:55;;;;;;;9.23;6.03;;;22.70;79.60;;;;;;5052513;28;20502;-81
2023/06/29 11:03:22;;;;;;;8.05;7.07;;;22.60;75.40;;;;;;5051408;28;20025;-81
2023/06/29 11:05:50;;;;;;;6.95;6.25;;;22.40;75.90;;;;;;5051815;28;22048;-81
2023/06/29 11:08:16;;;;;;;11.45;7.90;;;22.40;73.00;;;;;;5050598;28;20112;-81
2023/06/29 11:10:41;;;;;;;9.85;7.20;;;22.50;73.50;;;;;;5052474;28;20060;-81
2023/06/29 11:13:09;;;;;;;7.95;6.70;;;22.60;72.20;;;;;;5052056;28;20047;-81
2023/06/29 11:15:35;;;;;;;12.13;7.45;;;22.90;75.60;;;;;;5050963;28;20157;-81
2023/06/29 11:18:04;;;;;;;7.47;6.68;;;22.90;74.80;;;;;;5052207;28;20397;-81
2023/06/29 11:20:29;;;;;;;7.30;6.60;;;22.70;73.10;;;;;;5049432;28;20052;-81
2023/06/29 11:22:57;;;;;;;8.32;6.80;;;22.60;74.50;;;;;;5031202;28;20056;-81
2023/06/29 11:25:23;;;;;;;9.60;7.82;;;22.80;74.30;;;;;;5031229;28;20124;-81
2023/06/29 11:27:48;;;;;;;7.85;7.05;;;23.00;75.40;;;;;;5030802;28;20112;-81
2023/06/29 11:30:14;;;;;;;9.73;7.07;;;23.20;74.00;;;;;;5032185;28;20432;-81
2023/06/29 11:32:41;;;;;;;7.95;6.75;;;23.20;75.60;;;;;;5030865;28;20078;-81
2023/06/29 11:35:10;;;;;;;7.88;6.55;;;23.50;74.20;;;;;;5032000;28;20146;-81
2023/06/29 11:37:37;;;;;;;10.50;7.35;;;23.70;70.30;;;;;;5032066;28;20029;-81
2023/06/29 11:40:07;;;;;;;6.72;6.03;;;23.70;70.30;;;;;;5031891;28;20030;-81
2023/06/29 11:42:35;;;;;;;6.88;6.13;;;23.80;68.50;;;;;;5031999;28;20021;-81
2023/06/29 11:45:02;;;;;;;12.13;7.00;;;24.00;67.90;;;;;;5030571;28;20041;-81
2023/06/29 11:47:28;;;;;;;8.82;6.97;;;24.10;71.10;;;;;;5030811;28;20026;-81
2023/06/29 11:49:59;;;;;;;9.30;6.88;;;24.20;68.60;;;;;;5030953;28;20028;-82
2023/06/29 11:52:30;;;;;;;8.10;6.57;;;24.10;68.30;;;;;;5031885;28;20451;-82
2023/06/29 11:54:56;;;;;;;8.07;7.30;;;24.10;67.90;;;;;;5030592;28;20052;-81
2023/06/29 11:57:22;;;;;;;9.38;8.25;;;24.00;67.80;;;;;;5030493;28;20022;-81
2023/06/29 11:59:47;;;;;;;9.02;7.70;;;23.90;68.30;;;;;;5031600;28;20024;-81
2023/06/29 12:02:18;;;;;;;6.95;6.18;;;24.00;68.10;;;;;;5031717;28;20025;-81
2023/06/29 12:04:58;;;;;;;8.32;6.95;;;23.70;66.50;;;;;;5031672;28;20029;-81
2023/06/29 12:07:40;;;;;;;9.60;7.68;;;23.30;65.50;;;;;;5031696;28;20030;-81
2023/06/29 12:10:25;;;;;;;8.23;7.30;;;23.00;70.20;;;;;;5030228;28;20112;-81
2023/06/29 12:12:56;;;;;;;9.07;7.05;;;22.90;70.60;;;;;;5030339;28;20025;-81
2023/06/29 12:15:24;;;;;;;7.30;6.60;;;23.00;73.40;;;;;;5031569;28;20026;-82
2023/06/29 12:17:50;;;;;;;8.43;7.35;;;23.10;72.10;;;;;;5030515;28;20120;-81
2023/06/29 12:20:18;;;;;;;8.52;6.53;;;23.10;71.60;;;;;;5029955;28;20028;-81
2023/06/29 12:22:45;;;;;;;10.57;7.50;;;23.40;71.40;;;;;;5029486;28;20518;-81
2023/06/29 12:25:12;;;;;;;8.80;7.90;;;23.70;72.30;;;;;;5029986;28;20485;-81
2023/06/29 12:27:43;;;;;;;12.88;6.65;;;23.90;70.80;;;;;;5030201;28;20022;-80
2023/06/29 12:30:14;;;;;;;9.93;6.95;;;24.00;66.80;;;;;;5031805;28;20033;-82
2023/06/29 12:32:41;;;;;;;10.13;7.85;;;23.80;68.90;;;;;;5030116;28;20426;-81